sensor_id;sensor_type;location;lat;lon;timestamp;P1;durP1;ratioP1;P2;durP2;ratioP2
9500;SDS011;4788;52.438;9.846;2023-02-11T00:00:31;144.00;;;62.80;;
9500;SDS011;4788;52.438;9.846;2023-02-11T00:02:57;147.57;;;69.03;;
9500;SDS011;4788;52.438;9.846;2023-02-11T00:05:23;153.13;;;69.90;;
9500;SDS011;4788;52.438;9.846;2023-02-11T00:07:49;165.73;;;74.87;;
9500;SDS011;4788;52.438;9.846;2023-02-11T00:10:15;169.87;;;73.87;;
9500;SDS011;4788;52.438;9.846;2023-02-11T00:12:41;176.57;;;80.77;;
9500;SDS011;4788;52.438;9.846;2023-02-11T00:15:08;152.83;;;64.10;;
9500;SDS011;4788;52.438;9.846;2023-02-11T00:17:34;164.63;;;72.43;;
9500;SDS011;4788;52.438;9.846;2023-02-11T00:20:00;167.20;;;78.07;;
9500;SDS011;4788;52.438;9.846;2023-02-11T00:22:26;163.50;;;71.97;;
9500;SDS011;4788;52.438;9.846;2023-02-11T00:24:52;180.10;;;96.33;;
9500;SDS011;4788;52.438;9.846;2023-02-11T00:27:18;183.97;;;100.87;;
9500;SDS011;4788;52.438;9.846;2023-02-11T00:29:44;170.17;;;84.67;;
9500;SDS011;4788;52.438;9.846;2023-02-11T00:32:10;172.00;;;67.60;;
9500;SDS011;4788;52.438;9.846;2023-02-11T00:34:36;182.77;;;80.37;;
9500;SDS011;4788;52.438;9.846;2023-02-11T00:37:02;156.63;;;61.83;;
9500;SDS011;4788;52.438;9.846;2023-02-11T00:39:28;157.90;;;66.97;;
9500;SDS011;4788;52.438;9.846;2023-02-11T00:41:54;171.47;;;72.37;;
9500;SDS011;4788;52.438;9.846;2023-02-11T00:44:20;171.43;;;69.13;;
9500;SDS011;4788;52.438;9.846;2023-02-11T00:46:46;172.87;;;72.10;;
9500;SDS011;4788;52.438;9.846;2023-02-11T00:49:12;181.57;;;78.10;;
9500;SDS011;4788;52.438;9.846;2023-02-11T00:51:38;189.97;;;98.80;;
9500;SDS011;4788;52.438;9.846;2023-02-11T00:54:04;186.10;;;72.60;;
9500;SDS011;4788;52.438;9.846;2023-02-11T00:56:30;199.10;;;78.33;;
9500;SDS011;4788;52.438;9.846;2023-02-11T00:58:56;177.03;;;71.90;;
9500;SDS011;4788;52.438;9.846;2023-02-11T01:01:22;175.53;;;72.13;;
9500;SDS011;4788;52.438;9.846;2023-02-11T01:03:48;171.83;;;73.43;;
9500;SDS011;4788;52.438;9.846;2023-02-11T01:06:14;172.97;;;75.07;;
9500;SDS011;4788;52.438;9.846;2023-02-11T01:08:40;161.13;;;66.50;;
9500;SDS011;4788;52.438;9.846;2023-02-11T01:11:09;171.33;;;75.10;;
9500;SDS011;4788;52.438;9.846;2023-02-11T01:13:36;167.07;;;68.30;;
9500;SDS011;4788;52.438;9.846;2023-02-11T01:16:03;164.97;;;66.20;;
9500;SDS011;4788;52.438;9.846;2023-02-11T01:18:31;163.83;;;66.23;;
9500;SDS011;4788;52.438;9.846;2023-02-11T01:20:57;164.37;;;66.43;;
9500;SDS011;4788;52.438;9.846;2023-02-11T01:23:23;168.17;;;68.93;;
9500;SDS011;4788;52.438;9.846;2023-02-11T01:25:49;160.53;;;62.07;;
9500;SDS011;4788;52.438;9.846;2023-02-11T01:28:16;176.20;;;73.47;;
9500;SDS011;4788;52.438;9.846;2023-02-11T01:30:43;168.17;;;73.10;;
9500;SDS011;4788;52.438;9.846;2023-02-11T01:33:09;183.23;;;81.97;;
9500;SDS011;4788;52.438;9.846;2023-02-11T01:35:36;160.47;;;63.13;;
9500;SDS011;4788;52.438;9.846;2023-02-11T01:38:02;179.03;;;78.80;;
9500;SDS011;4788;52.438;9.846;2023-02-11T01:40:28;168.37;;;68.90;;
9500;SDS011;4788;52.438;9.846;2023-02-11T01:42:54;166.50;;;65.30;;
9500;SDS011;4788;52.438;9.846;2023-02-11T01:48:05;179.00;;;81.20;;
9500;SDS011;4788;52.438;9.846;2023-02-11T01:50:31;178.37;;;76.53;;
9500;SDS011;4788;52.438;9.846;2023-02-11T01:52:58;179.17;;;72.50;;
9500;SDS011;4788;52.438;9.846;2023-02-11T01:55:44;178.87;;;78.20;;
9500;SDS011;4788;52.438;9.846;2023-02-11T01:58:28;167.67;;;74.23;;
9500;SDS011;4788;52.438;9.846;2023-02-11T02:00:56;175.27;;;78.67;;
9500;SDS011;4788;52.438;9.846;2023-02-11T02:03:23;159.43;;;69.23;;
9500;SDS011;4788;52.438;9.846;2023-02-11T02:05:53;167.07;;;76.00;;
9500;SDS011;4788;52.438;9.846;2023-02-11T02:10:53;151.73;;;63.77;;
9500;SDS011;4788;52.438;9.846;2023-02-11T02:13:20;162.07;;;72.63;;
9500;SDS011;4788;52.438;9.846;2023-02-11T02:15:50;197.67;;;88.03;;
9500;SDS011;4788;52.438;9.846;2023-02-11T02:23:51;175.90;;;72.70;;
9500;SDS011;4788;52.438;9.846;2023-02-11T02:34:22;184.93;;;72.50;;
9500;SDS011;4788;52.438;9.846;2023-02-11T02:36:59;181.77;;;81.33;;
9500;SDS011;4788;52.438;9.846;2023-02-11T02:39:30;189.87;;;91.83;;
9500;SDS011;4788;52.438;9.846;2023-02-11T02:41:58;183.43;;;81.67;;
9500;SDS011;4788;52.438;9.846;2023-02-11T02:44:24;146.50;;;68.57;;
9500;SDS011;4788;52.438;9.846;2023-02-11T02:46:50;176.17;;;70.40;;
9500;SDS011;4788;52.438;9.846;2023-02-11T02:49:16;179.93;;;96.33;;
9500;SDS011;4788;52.438;9.846;2023-02-11T02:51:49;164.60;;;92.83;;
9500;SDS011;4788;52.438;9.846;2023-02-11T02:56:56;156.97;;;70.07;;
9500;SDS011;4788;52.438;9.846;2023-02-11T02:59:42;165.40;;;77.90;;
9500;SDS011;4788;52.438;9.846;2023-02-11T03:02:16;106.03;;;60.87;;
9500;SDS011;4788;52.438;9.846;2023-02-11T03:04:55;204.90;;;134.27;;
9500;SDS011;4788;52.438;9.846;2023-02-11T03:09:50;169.03;;;93.07;;
9500;SDS011;4788;52.438;9.846;2023-02-11T03:12:19;141.57;;;67.40;;
9500;SDS011;4788;52.438;9.846;2023-02-11T03:14:47;160.37;;;68.97;;
9500;SDS011;4788;52.438;9.846;2023-02-11T03:17:14;163.93;;;68.50;;
9500;SDS011;4788;52.438;9.846;2023-02-11T03:19:44;180.93;;;121.47;;
9500;SDS011;4788;52.438;9.846;2023-02-11T03:22:13;148.03;;;86.83;;
9500;SDS011;4788;52.438;9.846;2023-02-11T03:24:41;141.73;;;60.40;;
9500;SDS011;4788;52.438;9.846;2023-02-11T03:27:20;171.57;;;83.60;;
9500;SDS011;4788;52.438;9.846;2023-02-11T03:29:51;159.00;;;97.53;;
9500;SDS011;4788;52.438;9.846;2023-02-11T03:32:24;185.00;;;105.13;;
9500;SDS011;4788;52.438;9.846;2023-02-11T03:37:24;138.57;;;70.27;;
9500;SDS011;4788;52.438;9.846;2023-02-11T03:40:08;91.43;;;59.80;;
9500;SDS011;4788;52.438;9.846;2023-02-11T03:43:19;174.63;;;80.27;;
9500;SDS011;4788;52.438;9.846;2023-02-11T03:45:25;157.70;;;73.03;;
9500;SDS011;4788;52.438;9.846;2023-02-11T03:47:55;168.77;;;78.23;;
9500;SDS011;4788;52.438;9.846;2023-02-11T03:50:22;164.03;;;74.67;;
9500;SDS011;4788;52.438;9.846;2023-02-11T03:52:49;157.97;;;76.07;;
9500;SDS011;4788;52.438;9.846;2023-02-11T03:55:16;148.20;;;79.17;;
9500;SDS011;4788;52.438;9.846;2023-02-11T03:57:43;136.00;;;57.87;;
9500;SDS011;4788;52.438;9.846;2023-02-11T04:00:09;173.37;;;106.70;;
9500;SDS011;4788;52.438;9.846;2023-02-11T04:02:36;159.10;;;66.70;;
9500;SDS011;4788;52.438;9.846;2023-02-11T04:05:03;179.03;;;80.57;;
9500;SDS011;4788;52.438;9.846;2023-02-11T04:07:30;130.30;;;59.67;;
9500;SDS011;4788;52.438;9.846;2023-02-11T04:09:56;134.60;;;56.07;;
9500;SDS011;4788;52.438;9.846;2023-02-11T04:12:22;136.13;;;55.67;;
9500;SDS011;4788;52.438;9.846;2023-02-11T04:14:48;126.90;;;61.30;;
9500;SDS011;4788;52.438;9.846;2023-02-11T04:17:14;143.87;;;68.07;;
9500;SDS011;4788;52.438;9.846;2023-02-11T04:19:40;128.13;;;58.40;;
9500;SDS011;4788;52.438;9.846;2023-02-11T04:22:06;133.30;;;64.43;;
9500;SDS011;4788;52.438;9.846;2023-02-11T04:24:32;151.77;;;68.97;;
9500;SDS011;4788;52.438;9.846;2023-02-11T04:26:58;142.70;;;65.17;;
9500;SDS011;4788;52.438;9.846;2023-02-11T04:29:24;127.47;;;55.57;;
9500;SDS011;4788;52.438;9.846;2023-02-11T04:31:52;131.47;;;61.67;;
9500;SDS011;4788;52.438;9.846;2023-02-11T04:34:18;139.37;;;68.30;;
9500;SDS011;4788;52.438;9.846;2023-02-11T04:36:44;133.37;;;60.37;;
9500;SDS011;4788;52.438;9.846;2023-02-11T04:39:09;129.50;;;57.00;;
9500;SDS011;4788;52.438;9.846;2023-02-11T04:41:35;141.90;;;64.50;;
9500;SDS011;4788;52.438;9.846;2023-02-11T04:44:01;128.07;;;57.70;;
9500;SDS011;4788;52.438;9.846;2023-02-11T04:46:27;135.13;;;63.53;;
9500;SDS011;4788;52.438;9.846;2023-02-11T04:48:53;140.87;;;63.73;;
9500;SDS011;4788;52.438;9.846;2023-02-11T04:51:20;137.73;;;64.87;;
9500;SDS011;4788;52.438;9.846;2023-02-11T04:53:46;150.00;;;62.03;;
9500;SDS011;4788;52.438;9.846;2023-02-11T04:56:12;142.40;;;63.30;;
9500;SDS011;4788;52.438;9.846;2023-02-11T04:58:38;148.90;;;77.23;;
9500;SDS011;4788;52.438;9.846;2023-02-11T05:01:08;139.80;;;62.83;;
9500;SDS011;4788;52.438;9.846;2023-02-11T05:03:34;153.47;;;70.27;;
9500;SDS011;4788;52.438;9.846;2023-02-11T05:06:00;168.70;;;88.80;;
9500;SDS011;4788;52.438;9.846;2023-02-11T05:08:26;146.10;;;66.90;;
9500;SDS011;4788;52.438;9.846;2023-02-11T05:10:52;148.70;;;65.67;;
9500;SDS011;4788;52.438;9.846;2023-02-11T05:13:18;143.30;;;65.07;;
9500;SDS011;4788;52.438;9.846;2023-02-11T05:15:44;144.47;;;63.17;;
9500;SDS011;4788;52.438;9.846;2023-02-11T05:18:10;165.97;;;78.53;;
9500;SDS011;4788;52.438;9.846;2023-02-11T05:20:38;144.97;;;64.23;;
9500;SDS011;4788;52.438;9.846;2023-02-11T05:23:04;146.03;;;68.37;;
9500;SDS011;4788;52.438;9.846;2023-02-11T05:25:30;182.57;;;85.83;;
9500;SDS011;4788;52.438;9.846;2023-02-11T05:27:56;182.33;;;83.33;;
9500;SDS011;4788;52.438;9.846;2023-02-11T05:30:22;160.73;;;70.73;;
9500;SDS011;4788;52.438;9.846;2023-02-11T05:32:49;160.13;;;73.17;;
9500;SDS011;4788;52.438;9.846;2023-02-11T05:35:15;179.13;;;76.60;;
9500;SDS011;4788;52.438;9.846;2023-02-11T05:37:41;156.63;;;72.83;;
9500;SDS011;4788;52.438;9.846;2023-02-11T05:40:07;150.43;;;63.60;;
9500;SDS011;4788;52.438;9.846;2023-02-11T05:42:33;178.40;;;76.60;;
9500;SDS011;4788;52.438;9.846;2023-02-11T05:44:59;164.13;;;68.10;;
9500;SDS011;4788;52.438;9.846;2023-02-11T05:47:25;169.83;;;77.80;;
9500;SDS011;4788;52.438;9.846;2023-02-11T05:49:52;146.03;;;81.33;;
9500;SDS011;4788;52.438;9.846;2023-02-11T05:52:18;147.13;;;69.00;;
9500;SDS011;4788;52.438;9.846;2023-02-11T05:54:44;140.67;;;69.70;;
9500;SDS011;4788;52.438;9.846;2023-02-11T05:57:10;155.97;;;71.00;;
9500;SDS011;4788;52.438;9.846;2023-02-11T05:59:36;141.93;;;66.53;;
9500;SDS011;4788;52.438;9.846;2023-02-11T06:02:03;137.63;;;65.93;;
9500;SDS011;4788;52.438;9.846;2023-02-11T06:04:29;162.80;;;73.73;;
9500;SDS011;4788;52.438;9.846;2023-02-11T06:06:55;135.90;;;62.63;;
9500;SDS011;4788;52.438;9.846;2023-02-11T06:09:21;139.43;;;65.63;;
9500;SDS011;4788;52.438;9.846;2023-02-11T06:11:47;143.10;;;67.50;;
9500;SDS011;4788;52.438;9.846;2023-02-11T06:14:13;145.93;;;71.53;;
9500;SDS011;4788;52.438;9.846;2023-02-11T06:16:39;143.17;;;67.27;;
9500;SDS011;4788;52.438;9.846;2023-02-11T06:19:05;164.83;;;78.37;;
9500;SDS011;4788;52.438;9.846;2023-02-11T06:21:31;137.17;;;59.17;;
9500;SDS011;4788;52.438;9.846;2023-02-11T06:23:57;134.07;;;55.70;;
9500;SDS011;4788;52.438;9.846;2023-02-11T06:26:23;144.23;;;63.37;;
9500;SDS011;4788;52.438;9.846;2023-02-11T06:28:48;146.70;;;70.23;;
9500;SDS011;4788;52.438;9.846;2023-02-11T06:31:15;150.00;;;71.83;;
9500;SDS011;4788;52.438;9.846;2023-02-11T06:33:41;145.97;;;68.97;;
9500;SDS011;4788;52.438;9.846;2023-02-11T06:36:11;142.90;;;67.10;;
9500;SDS011;4788;52.438;9.846;2023-02-11T06:38:38;157.23;;;73.67;;
9500;SDS011;4788;52.438;9.846;2023-02-11T06:41:04;136.20;;;66.57;;
9500;SDS011;4788;52.438;9.846;2023-02-11T06:43:30;141.60;;;106.23;;
9500;SDS011;4788;52.438;9.846;2023-02-11T06:45:56;96.47;;;49.87;;
9500;SDS011;4788;52.438;9.846;2023-02-11T06:48:22;123.43;;;65.77;;
9500;SDS011;4788;52.438;9.846;2023-02-11T06:50:48;109.90;;;54.93;;
9500;SDS011;4788;52.438;9.846;2023-02-11T06:53:14;117.93;;;60.03;;
9500;SDS011;4788;52.438;9.846;2023-02-11T06:55:40;102.57;;;53.73;;
9500;SDS011;4788;52.438;9.846;2023-02-11T06:58:06;90.93;;;47.20;;
9500;SDS011;4788;52.438;9.846;2023-02-11T07:00:32;104.23;;;53.60;;
9500;SDS011;4788;52.438;9.846;2023-02-11T07:02:58;106.57;;;56.37;;
9500;SDS011;4788;52.438;9.846;2023-02-11T07:05:24;109.17;;;59.17;;
9500;SDS011;4788;52.438;9.846;2023-02-11T07:07:50;107.77;;;56.73;;
9500;SDS011;4788;52.438;9.846;2023-02-11T07:10:16;96.07;;;47.53;;
9500;SDS011;4788;52.438;9.846;2023-02-11T07:12:42;98.27;;;48.83;;
9500;SDS011;4788;52.438;9.846;2023-02-11T07:15:08;128.07;;;61.37;;
9500;SDS011;4788;52.438;9.846;2023-02-11T07:17:34;100.00;;;51.10;;
9500;SDS011;4788;52.438;9.846;2023-02-11T07:20:00;92.93;;;53.63;;
9500;SDS011;4788;52.438;9.846;2023-02-11T07:22:26;87.47;;;49.53;;
9500;SDS011;4788;52.438;9.846;2023-02-11T07:24:52;75.77;;;44.53;;
9500;SDS011;4788;52.438;9.846;2023-02-11T07:27:18;85.53;;;50.37;;
9500;SDS011;4788;52.438;9.846;2023-02-11T07:29:44;83.53;;;48.13;;
9500;SDS011;4788;52.438;9.846;2023-02-11T07:32:11;81.67;;;48.37;;
9500;SDS011;4788;52.438;9.846;2023-02-11T07:34:37;86.37;;;48.30;;
9500;SDS011;4788;52.438;9.846;2023-02-11T07:37:03;91.00;;;51.33;;
9500;SDS011;4788;52.438;9.846;2023-02-11T07:39:29;90.27;;;53.20;;
9500;SDS011;4788;52.438;9.846;2023-02-11T07:41:55;102.43;;;59.33;;
9500;SDS011;4788;52.438;9.846;2023-02-11T07:44:21;91.27;;;49.27;;
9500;SDS011;4788;52.438;9.846;2023-02-11T07:46:47;89.20;;;47.40;;
9500;SDS011;4788;52.438;9.846;2023-02-11T07:49:14;101.57;;;56.40;;
9500;SDS011;4788;52.438;9.846;2023-02-11T07:51:40;101.07;;;57.67;;
9500;SDS011;4788;52.438;9.846;2023-02-11T07:54:06;80.33;;;46.77;;
9500;SDS011;4788;52.438;9.846;2023-02-11T07:56:32;101.07;;;57.00;;
9500;SDS011;4788;52.438;9.846;2023-02-11T07:58:59;113.03;;;59.30;;
9500;SDS011;4788;52.438;9.846;2023-02-11T08:01:25;115.27;;;57.73;;
9500;SDS011;4788;52.438;9.846;2023-02-11T08:03:53;114.53;;;55.73;;
9500;SDS011;4788;52.438;9.846;2023-02-11T08:06:20;112.87;;;65.00;;
9500;SDS011;4788;52.438;9.846;2023-02-11T08:08:47;100.43;;;59.77;;
9500;SDS011;4788;52.438;9.846;2023-02-11T08:11:14;128.10;;;72.77;;
9500;SDS011;4788;52.438;9.846;2023-02-11T08:13:41;94.70;;;53.47;;
9500;SDS011;4788;52.438;9.846;2023-02-11T08:16:07;104.07;;;56.90;;
9500;SDS011;4788;52.438;9.846;2023-02-11T08:18:33;100.93;;;55.83;;
9500;SDS011;4788;52.438;9.846;2023-02-11T08:21:06;117.63;;;62.77;;
9500;SDS011;4788;52.438;9.846;2023-02-11T08:23:35;103.03;;;55.27;;
9500;SDS011;4788;52.438;9.846;2023-02-11T08:26:01;104.27;;;58.83;;
9500;SDS011;4788;52.438;9.846;2023-02-11T08:28:27;99.73;;;55.97;;
9500;SDS011;4788;52.438;9.846;2023-02-11T08:30:53;105.70;;;56.27;;
9500;SDS011;4788;52.438;9.846;2023-02-11T08:33:19;146.87;;;73.00;;
9500;SDS011;4788;52.438;9.846;2023-02-11T08:35:45;139.80;;;66.03;;
9500;SDS011;4788;52.438;9.846;2023-02-11T08:38:11;82.07;;;48.10;;
9500;SDS011;4788;52.438;9.846;2023-02-11T08:40:37;103.53;;;53.57;;
9500;SDS011;4788;52.438;9.846;2023-02-11T08:43:03;102.13;;;57.30;;
9500;SDS011;4788;52.438;9.846;2023-02-11T08:45:29;108.57;;;60.13;;
9500;SDS011;4788;52.438;9.846;2023-02-11T08:47:56;123.77;;;66.10;;
9500;SDS011;4788;52.438;9.846;2023-02-11T08:50:22;120.93;;;66.73;;
9500;SDS011;4788;52.438;9.846;2023-02-11T08:52:48;143.87;;;72.53;;
9500;SDS011;4788;52.438;9.846;2023-02-11T08:55:14;87.37;;;50.43;;
9500;SDS011;4788;52.438;9.846;2023-02-11T08:57:40;71.13;;;43.57;;
9500;SDS011;4788;52.438;9.846;2023-02-11T09:00:07;79.53;;;47.30;;
9500;SDS011;4788;52.438;9.846;2023-02-11T09:02:35;77.37;;;45.67;;
9500;SDS011;4788;52.438;9.846;2023-02-11T09:05:01;79.43;;;44.87;;
9500;SDS011;4788;52.438;9.846;2023-02-11T09:07:27;78.70;;;45.60;;
9500;SDS011;4788;52.438;9.846;2023-02-11T09:09:53;86.00;;;48.83;;
9500;SDS011;4788;52.438;9.846;2023-02-11T09:12:19;90.57;;;50.97;;
9500;SDS011;4788;52.438;9.846;2023-02-11T09:14:45;102.13;;;57.40;;
9500;SDS011;4788;52.438;9.846;2023-02-11T09:17:11;97.13;;;53.03;;
9500;SDS011;4788;52.438;9.846;2023-02-11T09:19:37;79.20;;;44.73;;
9500;SDS011;4788;52.438;9.846;2023-02-11T09:22:03;74.63;;;44.63;;
9500;SDS011;4788;52.438;9.846;2023-02-11T09:24:29;74.23;;;43.00;;
9500;SDS011;4788;52.438;9.846;2023-02-11T09:26:55;73.27;;;41.90;;
9500;SDS011;4788;52.438;9.846;2023-02-11T09:29:21;65.87;;;39.23;;
9500;SDS011;4788;52.438;9.846;2023-02-11T09:31:47;68.23;;;41.40;;
9500;SDS011;4788;52.438;9.846;2023-02-11T09:34:13;66.53;;;40.03;;
9500;SDS011;4788;52.438;9.846;2023-02-11T09:36:39;69.90;;;41.20;;
9500;SDS011;4788;52.438;9.846;2023-02-11T09:39:07;75.67;;;45.20;;
9500;SDS011;4788;52.438;9.846;2023-02-11T09:44:01;85.70;;;49.53;;
9500;SDS011;4788;52.438;9.846;2023-02-11T09:46:32;74.30;;;41.20;;
9500;SDS011;4788;52.438;9.846;2023-02-11T09:49:00;76.77;;;42.90;;
9500;SDS011;4788;52.438;9.846;2023-02-11T09:53:54;80.97;;;47.90;;
9500;SDS011;4788;52.438;9.846;2023-02-11T09:56:21;75.30;;;45.57;;
9500;SDS011;4788;52.438;9.846;2023-02-11T09:58:47;75.77;;;42.73;;
9500;SDS011;4788;52.438;9.846;2023-02-11T10:01:28;79.50;;;47.50;;
9500;SDS011;4788;52.438;9.846;2023-02-11T10:06:47;77.50;;;40.97;;
9500;SDS011;4788;52.438;9.846;2023-02-11T10:09:32;87.40;;;47.00;;
9500;SDS011;4788;52.438;9.846;2023-02-11T10:12:20;84.03;;;43.23;;
9500;SDS011;4788;52.438;9.846;2023-02-11T10:22:35;81.37;;;42.67;;
9500;SDS011;4788;52.438;9.846;2023-02-11T10:25:17;94.77;;;53.33;;
9500;SDS011;4788;52.438;9.846;2023-02-11T10:27:44;96.37;;;55.20;;
9500;SDS011;4788;52.438;9.846;2023-02-11T10:30:22;88.47;;;49.57;;
9500;SDS011;4788;52.438;9.846;2023-02-11T10:32:59;83.80;;;46.57;;
9500;SDS011;4788;52.438;9.846;2023-02-11T10:35:27;103.77;;;57.20;;
9500;SDS011;4788;52.438;9.846;2023-02-11T10:37:53;87.53;;;49.43;;
9500;SDS011;4788;52.438;9.846;2023-02-11T10:40:21;97.87;;;56.33;;
9500;SDS011;4788;52.438;9.846;2023-02-11T10:42:49;74.60;;;42.20;;
9500;SDS011;4788;52.438;9.846;2023-02-11T10:45:21;89.40;;;51.77;;
9500;SDS011;4788;52.438;9.846;2023-02-11T10:47:48;69.90;;;43.67;;
9500;SDS011;4788;52.438;9.846;2023-02-11T10:50:33;78.07;;;48.60;;
9500;SDS011;4788;52.438;9.846;2023-02-11T10:55:55;83.00;;;49.80;;
9500;SDS011;4788;52.438;9.846;2023-02-11T10:58:31;85.73;;;50.27;;
9500;SDS011;4788;52.438;9.846;2023-02-11T11:01:00;99.30;;;57.37;;
9500;SDS011;4788;52.438;9.846;2023-02-11T11:03:27;89.07;;;49.97;;
9500;SDS011;4788;52.438;9.846;2023-02-11T11:05:56;87.60;;;48.90;;
9500;SDS011;4788;52.438;9.846;2023-02-11T11:08:36;108.67;;;59.33;;
9500;SDS011;4788;52.438;9.846;2023-02-11T11:11:04;91.63;;;51.83;;
9500;SDS011;4788;52.438;9.846;2023-02-11T11:13:35;79.53;;;44.43;;
9500;SDS011;4788;52.438;9.846;2023-02-11T11:16:14;82.43;;;48.23;;
9500;SDS011;4788;52.438;9.846;2023-02-11T11:18:42;79.17;;;43.07;;
9500;SDS011;4788;52.438;9.846;2023-02-11T11:21:12;77.03;;;40.50;;
9500;SDS011;4788;52.438;9.846;2023-02-11T11:23:38;88.23;;;46.73;;
9500;SDS011;4788;52.438;9.846;2023-02-11T11:26:12;91.23;;;48.53;;
9500;SDS011;4788;52.438;9.846;2023-02-11T11:28:39;95.30;;;53.10;;
9500;SDS011;4788;52.438;9.846;2023-02-11T11:31:14;87.00;;;46.17;;
9500;SDS011;4788;52.438;9.846;2023-02-11T11:33:42;91.03;;;47.93;;
9500;SDS011;4788;52.438;9.846;2023-02-11T11:36:09;89.00;;;46.53;;
9500;SDS011;4788;52.438;9.846;2023-02-11T11:38:37;87.97;;;46.57;;
9500;SDS011;4788;52.438;9.846;2023-02-11T11:41:22;93.37;;;51.13;;
9500;SDS011;4788;52.438;9.846;2023-02-11T11:46:37;93.90;;;50.33;;
9500;SDS011;4788;52.438;9.846;2023-02-11T11:49:11;91.83;;;49.40;;
9500;SDS011;4788;52.438;9.846;2023-02-11T11:51:38;89.70;;;46.43;;
9500;SDS011;4788;52.438;9.846;2023-02-11T11:54:07;95.20;;;49.77;;
9500;SDS011;4788;52.438;9.846;2023-02-11T11:56:38;79.47;;;42.23;;
9500;SDS011;4788;52.438;9.846;2023-02-11T11:59:08;91.90;;;48.70;;
9500;SDS011;4788;52.438;9.846;2023-02-11T12:14:41;84.83;;;47.23;;
9500;SDS011;4788;52.438;9.846;2023-02-11T12:20:15;102.50;;;54.23;;
9500;SDS011;4788;52.438;9.846;2023-02-11T12:22:54;160.57;;;73.60;;
9500;SDS011;4788;52.438;9.846;2023-02-11T12:25:25;172.20;;;76.10;;
9500;SDS011;4788;52.438;9.846;2023-02-11T12:30:38;122.20;;;59.53;;
9500;SDS011;4788;52.438;9.846;2023-02-11T12:33:15;186.57;;;82.27;;
9500;SDS011;4788;52.438;9.846;2023-02-11T12:36:01;91.70;;;48.20;;
9500;SDS011;4788;52.438;9.846;2023-02-11T12:43:41;184.47;;;79.87;;
9500;SDS011;4788;52.438;9.846;2023-02-11T12:46:23;199.10;;;77.03;;
9500;SDS011;4788;52.438;9.846;2023-02-11T12:54:09;175.53;;;70.47;;
9500;SDS011;4788;52.438;9.846;2023-02-11T12:56:46;169.00;;;66.73;;
9500;SDS011;4788;52.438;9.846;2023-02-11T12:59:16;183.00;;;72.83;;
9500;SDS011;4788;52.438;9.846;2023-02-11T13:01:45;162.50;;;70.17;;
9500;SDS011;4788;52.438;9.846;2023-02-11T13:04:20;169.37;;;68.63;;
9500;SDS011;4788;52.438;9.846;2023-02-11T13:06:56;183.97;;;71.43;;
9500;SDS011;4788;52.438;9.846;2023-02-11T13:09:28;152.87;;;66.63;;
9500;SDS011;4788;52.438;9.846;2023-02-11T13:11:56;178.33;;;76.00;;
9500;SDS011;4788;52.438;9.846;2023-02-11T13:14:27;133.33;;;60.43;;
9500;SDS011;4788;52.438;9.846;2023-02-11T13:16:54;109.47;;;56.83;;
9500;SDS011;4788;52.438;9.846;2023-02-11T13:24:18;123.67;;;55.33;;
9500;SDS011;4788;52.438;9.846;2023-02-11T13:31:52;137.53;;;62.83;;
9500;SDS011;4788;52.438;9.846;2023-02-11T13:34:26;122.70;;;54.50;;
9500;SDS011;4788;52.438;9.846;2023-02-11T13:37:18;129.63;;;55.47;;
9500;SDS011;4788;52.438;9.846;2023-02-11T13:39:58;158.97;;;69.73;;
9500;SDS011;4788;52.438;9.846;2023-02-11T13:42:24;123.50;;;62.83;;
9500;SDS011;4788;52.438;9.846;2023-02-11T13:44:51;94.40;;;48.90;;
9500;SDS011;4788;52.438;9.846;2023-02-11T13:47:24;130.47;;;65.23;;
9500;SDS011;4788;52.438;9.846;2023-02-11T13:49:52;78.67;;;43.83;;
9500;SDS011;4788;52.438;9.846;2023-02-11T13:52:22;103.30;;;55.17;;
9500;SDS011;4788;52.438;9.846;2023-02-11T13:54:49;91.07;;;45.57;;
9500;SDS011;4788;52.438;9.846;2023-02-11T13:59:46;86.53;;;47.83;;
9500;SDS011;4788;52.438;9.846;2023-02-11T14:08:10;79.30;;;50.70;;
9500;SDS011;4788;52.438;9.846;2023-02-11T14:15:48;60.50;;;35.70;;
9500;SDS011;4788;52.438;9.846;2023-02-11T14:21:09;61.27;;;37.30;;
9500;SDS011;4788;52.438;9.846;2023-02-11T14:23:37;61.77;;;39.80;;
9500;SDS011;4788;52.438;9.846;2023-02-11T14:28:50;48.73;;;32.20;;
9500;SDS011;4788;52.438;9.846;2023-02-11T14:31:20;42.77;;;30.63;;
9500;SDS011;4788;52.438;9.846;2023-02-11T14:34:13;42.33;;;30.60;;
9500;SDS011;4788;52.438;9.846;2023-02-11T14:39:47;139.10;;;67.63;;
9500;SDS011;4788;52.438;9.846;2023-02-11T14:42:20;86.27;;;49.30;;
9500;SDS011;4788;52.438;9.846;2023-02-11T14:44:50;78.00;;;43.67;;
9500;SDS011;4788;52.438;9.846;2023-02-11T14:47:18;80.47;;;45.63;;
9500;SDS011;4788;52.438;9.846;2023-02-11T14:49:45;65.77;;;38.17;;
9500;SDS011;4788;52.438;9.846;2023-02-11T14:52:20;63.93;;;38.97;;
9500;SDS011;4788;52.438;9.846;2023-02-11T14:54:48;67.00;;;39.97;;
9500;SDS011;4788;52.438;9.846;2023-02-11T14:57:17;65.20;;;38.43;;
9500;SDS011;4788;52.438;9.846;2023-02-11T14:59:59;56.67;;;34.73;;
9500;SDS011;4788;52.438;9.846;2023-02-11T15:02:31;59.60;;;35.33;;
9500;SDS011;4788;52.438;9.846;2023-02-11T15:05:17;67.73;;;41.63;;
9500;SDS011;4788;52.438;9.846;2023-02-11T15:07:47;78.57;;;40.87;;
9500;SDS011;4788;52.438;9.846;2023-02-11T15:10:15;124.57;;;60.40;;
9500;SDS011;4788;52.438;9.846;2023-02-11T15:12:44;84.87;;;46.50;;
9500;SDS011;4788;52.438;9.846;2023-02-11T15:15:13;88.53;;;45.93;;
9500;SDS011;4788;52.438;9.846;2023-02-11T15:17:40;88.40;;;47.90;;
9500;SDS011;4788;52.438;9.846;2023-02-11T15:20:12;101.67;;;54.03;;
9500;SDS011;4788;52.438;9.846;2023-02-11T15:22:40;181.27;;;85.90;;
9500;SDS011;4788;52.438;9.846;2023-02-11T15:25:10;160.03;;;72.20;;
9500;SDS011;4788;52.438;9.846;2023-02-11T15:27:40;170.77;;;77.00;;
9500;SDS011;4788;52.438;9.846;2023-02-11T15:32:44;152.43;;;68.20;;
9500;SDS011;4788;52.438;9.846;2023-02-11T15:35:10;153.23;;;70.73;;
9500;SDS011;4788;52.438;9.846;2023-02-11T15:37:37;149.60;;;65.17;;
9500;SDS011;4788;52.438;9.846;2023-02-11T15:40:36;159.27;;;68.37;;
9500;SDS011;4788;52.438;9.846;2023-02-11T15:48:01;144.93;;;65.10;;
9500;SDS011;4788;52.438;9.846;2023-02-11T15:50:31;142.17;;;63.33;;
9500;SDS011;4788;52.438;9.846;2023-02-11T15:53:01;140.43;;;62.20;;
9500;SDS011;4788;52.438;9.846;2023-02-11T15:55:28;144.10;;;64.80;;
9500;SDS011;4788;52.438;9.846;2023-02-11T15:57:55;146.47;;;64.97;;
9500;SDS011;4788;52.438;9.846;2023-02-11T16:00:22;142.30;;;63.33;;
9500;SDS011;4788;52.438;9.846;2023-02-11T16:02:49;147.20;;;65.17;;
9500;SDS011;4788;52.438;9.846;2023-02-11T16:05:35;142.67;;;65.63;;
9500;SDS011;4788;52.438;9.846;2023-02-11T16:08:12;137.07;;;61.67;;
9500;SDS011;4788;52.438;9.846;2023-02-11T16:10:38;153.87;;;68.70;;
9500;SDS011;4788;52.438;9.846;2023-02-11T16:18:00;139.23;;;61.63;;
9500;SDS011;4788;52.438;9.846;2023-02-11T16:20:26;157.13;;;71.07;;
9500;SDS011;4788;52.438;9.846;2023-02-11T16:22:52;155.30;;;73.07;;
9500;SDS011;4788;52.438;9.846;2023-02-11T16:25:19;169.90;;;78.60;;
9500;SDS011;4788;52.438;9.846;2023-02-11T16:27:52;187.17;;;86.50;;
9500;SDS011;4788;52.438;9.846;2023-02-11T16:30:34;174.87;;;77.80;;
9500;SDS011;4788;52.438;9.846;2023-02-11T16:33:01;160.90;;;73.33;;
9500;SDS011;4788;52.438;9.846;2023-02-11T16:35:28;166.60;;;76.50;;
9500;SDS011;4788;52.438;9.846;2023-02-11T16:37:54;176.73;;;77.13;;
9500;SDS011;4788;52.438;9.846;2023-02-11T16:40:20;201.07;;;93.37;;
9500;SDS011;4788;52.438;9.846;2023-02-11T16:42:49;172.87;;;83.53;;
9500;SDS011;4788;52.438;9.846;2023-02-11T16:45:17;185.13;;;84.23;;
9500;SDS011;4788;52.438;9.846;2023-02-11T16:47:43;167.40;;;82.23;;